createdAt,value
2023-04-16T00:02:01.559Z,73.69
2023-04-16T00:04:28.629Z,73.59
2023-04-16T00:06:55.706Z,73.60
2023-04-16T00:09:22.617Z,73.60
2023-04-16T00:11:49.451Z,73.63
2023-04-16T00:14:16.279Z,73.94
2023-04-16T00:16:43.151Z,73.63
2023-04-16T00:19:10.238Z,73.22
2023-04-16T00:21:37.175Z,72.84
2023-04-16T00:24:04.084Z,72.64
2023-04-16T00:26:30.901Z,73.19
2023-04-16T00:28:57.719Z,72.22
2023-04-16T00:31:32.708Z,73.04
2023-04-16T00:34:00.389Z,72.90
2023-04-16T00:36:28.572Z,72.36
2023-04-16T00:38:56.786Z,72.12
2023-04-16T00:41:23.911Z,72.38
2023-04-16T00:43:51.527Z,72.14
2023-04-16T00:46:21.247Z,72.78
2023-04-16T00:48:49.022Z,72.58
2023-04-16T00:51:16.540Z,72.70
2023-04-16T00:53:44.736Z,72.66
2023-04-16T00:56:13.163Z,72.65
2023-04-16T00:58:40.472Z,72.70
2023-04-16T01:01:07.446Z,73.17
2023-04-16T01:04:00.671Z,73.72
2023-04-16T01:06:27.856Z,73.58
2023-04-16T01:08:54.743Z,73.66
2023-04-16T01:11:21.592Z,73.39
2023-04-16T01:13:48.373Z,72.94
2023-04-16T01:16:15.253Z,72.68
2023-04-16T01:18:42.158Z,71.88
2023-04-16T01:21:09.288Z,72.24
2023-04-16T01:23:36.356Z,71.48
2023-04-16T01:26:03.200Z,71.37
2023-04-16T01:28:30.044Z,71.30
2023-04-16T01:30:56.909Z,72.34
2023-04-16T01:33:23.724Z,71.58
2023-04-16T01:35:50.624Z,70.93
2023-04-16T01:38:17.620Z,70.27
2023-04-16T01:40:44.475Z,70.23
2023-04-16T01:43:11.327Z,69.95
2023-04-16T01:45:38.130Z,70.55
2023-04-16T01:48:05.336Z,70.16
2023-04-16T01:50:32.357Z,69.82
2023-04-16T01:52:59.270Z,70.25
2023-04-16T01:55:26.935Z,70.08
2023-04-16T01:57:53.765Z,70.46
2023-04-16T02:00:20.801Z,70.95
2023-04-16T02:02:49.253Z,70.59
2023-04-16T02:05:16.489Z,70.90
2023-04-16T02:07:43.280Z,70.52
2023-04-16T02:10:10.428Z,70.55
2023-04-16T02:12:37.378Z,70.19
2023-04-16T02:15:05.113Z,70.41
2023-04-16T02:17:32.057Z,70.17
2023-04-16T02:19:58.964Z,70.27
2023-04-16T02:22:25.861Z,70.74
2023-04-16T02:24:52.702Z,70.39
2023-04-16T02:27:19.531Z,70.62
2023-04-16T02:29:46.366Z,70.41
2023-04-16T02:32:13.343Z,71.75
2023-04-16T02:34:40.400Z,70.31
2023-04-16T02:37:07.310Z,70.01
2023-04-16T02:39:34.151Z,70.70
2023-04-16T02:42:02.667Z,70.90
2023-04-16T02:44:29.677Z,70.87
2023-04-16T02:46:56.475Z,70.29
2023-04-16T02:49:23.281Z,70.32
2023-04-16T02:51:50.260Z,70.79
2023-04-16T02:54:17.040Z,70.39
2023-04-16T02:56:43.859Z,70.75
2023-04-16T02:59:10.863Z,70.52
2023-04-16T03:01:37.886Z,70.89
2023-04-16T03:04:05.126Z,70.88
2023-04-16T03:06:32.042Z,72.06
2023-04-16T03:08:58.977Z,71.97
2023-04-16T03:11:25.863Z,71.58
2023-04-16T03:13:52.720Z,71.42
2023-04-16T03:16:19.698Z,71.78
2023-04-16T03:18:46.588Z,71.93
2023-04-16T03:21:13.470Z,71.85
2023-04-16T03:23:40.364Z,73.57
2023-04-16T03:26:07.193Z,72.11
2023-04-16T03:28:34.056Z,71.77
2023-04-16T03:31:01.228Z,72.11
2023-04-16T03:33:28.054Z,72.08
2023-04-16T03:35:58.447Z,72.11
2023-04-16T03:38:26.671Z,71.91
2023-04-16T03:40:53.605Z,72.19
2023-04-16T03:43:20.578Z,72.00
2023-04-16T03:45:47.894Z,72.64
2023-04-16T03:48:15.857Z,71.68
2023-04-16T03:50:47.476Z,72.56
2023-04-16T03:53:14.610Z,72.77
2023-04-16T03:55:42.337Z,72.37
2023-04-16T03:58:09.586Z,73.34
2023-04-16T04:00:36.445Z,71.94
2023-04-16T04:03:03.437Z,72.83
2023-04-16T04:05:30.374Z,71.89
2023-04-16T04:07:57.149Z,71.85
2023-04-16T04:10:24.016Z,71.69
2023-04-16T04:12:50.845Z,71.94
2023-04-16T04:15:17.782Z,71.93
2023-04-16T04:17:44.649Z,72.34
2023-04-16T04:20:12.261Z,72.34
2023-04-16T04:22:39.083Z,72.31
2023-04-16T04:25:06.339Z,72.71
2023-04-16T04:27:33.186Z,74.70
2023-04-16T04:29:59.973Z,73.34
2023-04-16T04:32:26.857Z,73.74
2023-04-16T04:34:53.754Z,73.58
2023-04-16T04:37:20.606Z,73.18
2023-04-16T04:39:47.503Z,72.88
2023-04-16T04:42:17.005Z,72.92
2023-04-16T04:44:44.253Z,73.43
2023-04-16T04:47:11.189Z,74.42
2023-04-16T04:49:37.956Z,73.96
2023-04-16T04:52:04.823Z,74.39
2023-04-16T04:54:32.564Z,73.56
2023-04-16T04:56:59.778Z,73.48
2023-04-16T04:59:26.621Z,73.44
2023-04-16T05:01:53.522Z,73.72
2023-04-16T05:04:20.494Z,73.80
2023-04-16T05:06:47.357Z,73.92
2023-04-16T05:09:14.202Z,73.10
2023-04-16T05:11:42.131Z,72.97
2023-04-16T05:14:09.220Z,72.83
2023-04-16T05:16:37.263Z,73.00
2023-04-16T05:19:04.869Z,73.49
2023-04-16T05:21:31.852Z,72.54
2023-04-16T05:23:59.084Z,73.11
2023-04-16T05:26:26.126Z,73.04
2023-04-16T05:28:52.958Z,73.58
2023-04-16T05:31:19.903Z,73.23
2023-04-16T05:33:46.810Z,72.92
2023-04-16T05:36:13.653Z,72.46
2023-04-16T05:38:40.429Z,72.20
2023-04-16T05:41:07.283Z,71.92
2023-04-16T05:43:34.128Z,71.93
2023-04-16T05:46:00.944Z,72.00
2023-04-16T05:48:27.816Z,72.12
2023-04-16T05:50:54.677Z,72.02
2023-04-16T05:53:21.532Z,72.22
2023-04-16T05:55:48.300Z,72.22
2023-04-16T05:58:15.267Z,71.65
2023-04-16T06:00:42.107Z,71.60
2023-04-16T06:03:09.258Z,71.24
2023-04-16T06:05:36.293Z,70.81
2023-04-16T06:08:03.246Z,70.79
2023-04-16T06:10:30.346Z,71.17
2023-04-16T06:12:57.165Z,71.12
2023-04-16T06:15:24.018Z,71.29
2023-04-16T06:17:51.171Z,70.87
2023-04-16T06:20:18.162Z,71.26
2023-04-16T06:22:45.064Z,71.22
2023-04-16T06:25:11.956Z,71.30
2023-04-16T06:27:38.794Z,71.21
2023-04-16T06:30:11.995Z,70.67
2023-04-16T06:32:39.164Z,70.81
2023-04-16T06:35:07.274Z,69.83
2023-04-16T06:37:35.531Z,70.29
2023-04-16T06:40:02.636Z,69.84
2023-04-16T06:42:29.581Z,70.71
2023-04-16T06:44:56.524Z,70.47
2023-04-16T06:47:23.377Z,69.63
2023-04-16T06:49:50.286Z,69.92
2023-04-16T06:52:17.200Z,69.72
2023-04-16T06:54:43.975Z,69.50
2023-04-16T06:57:11.320Z,69.70
2023-04-16T06:59:38.120Z,69.53
2023-04-16T07:02:05.032Z,69.95
2023-04-16T07:04:31.999Z,70.24
2023-04-16T07:06:58.875Z,70.72
2023-04-16T07:09:26.756Z,70.50
2023-04-16T07:11:54.434Z,70.30
2023-04-16T07:14:21.396Z,69.59
2023-04-16T07:16:48.346Z,69.71
2023-04-16T07:19:17.355Z,70.01
2023-04-16T07:21:44.503Z,70.66
2023-04-16T07:24:11.795Z,70.26
2023-04-16T07:26:38.675Z,70.81
2023-04-16T07:29:05.537Z,70.79
2023-04-16T07:31:32.611Z,70.80
2023-04-16T07:33:59.687Z,70.34
2023-04-16T07:36:28.381Z,70.15
2023-04-16T07:38:56.201Z,70.02
2023-04-16T07:41:23.137Z,69.66
2023-04-16T07:43:50.002Z,70.39
2023-04-16T07:46:17.035Z,70.62
2023-04-16T07:48:43.853Z,70.66
2023-04-16T07:51:10.657Z,70.22
2023-04-16T07:53:37.513Z,70.04
2023-04-16T07:56:04.372Z,69.20
2023-04-16T07:58:31.250Z,68.95
2023-04-16T08:00:58.957Z,68.79
2023-04-16T08:03:25.996Z,69.53
2023-04-16T08:05:53.003Z,67.63
2023-04-16T08:08:19.899Z,69.12
2023-04-16T08:10:46.816Z,68.73
2023-04-16T08:13:19.486Z,69.40
2023-04-16T08:15:46.775Z,68.90
2023-04-16T08:18:15.579Z,67.33
2023-04-16T08:20:43.107Z,68.89
2023-04-16T08:23:10.710Z,68.31
2023-04-16T08:25:38.129Z,68.58
2023-04-16T08:28:05.339Z,67.85
2023-04-16T08:30:32.290Z,66.58
2023-04-16T08:32:59.340Z,65.38
2023-04-16T08:35:26.193Z,65.03
2023-04-16T08:37:53.758Z,64.94
2023-04-16T08:40:21.243Z,64.08
2023-04-16T08:42:58.494Z,62.60
2023-04-16T08:45:27.453Z,62.81
2023-04-16T08:47:54.385Z,63.46
2023-04-16T08:50:26.184Z,62.89
2023-04-16T08:52:58.966Z,62.99
2023-04-16T08:55:43.733Z,60.67
2023-04-16T08:58:23.920Z,59.35
2023-04-16T09:00:51.065Z,62.41
2023-04-16T09:03:21.470Z,61.03
2023-04-16T09:05:50.410Z,60.76
2023-04-16T09:08:18.167Z,60.23
2023-04-16T09:10:45.207Z,59.22
2023-04-16T09:13:13.663Z,57.91
2023-04-16T09:15:41.975Z,60.90
2023-04-16T09:18:08.845Z,61.12
2023-04-16T09:20:35.614Z,57.38
2023-04-16T09:23:02.466Z,56.30
2023-04-16T09:25:37.558Z,59.23
2023-04-16T09:28:05.279Z,58.54
2023-04-16T09:30:33.545Z,56.87
2023-04-16T09:33:22.423Z,55.49
2023-04-16T09:35:54.297Z,56.10
2023-04-16T09:38:21.763Z,55.35
2023-04-16T09:40:48.777Z,54.64
2023-04-16T09:43:17.960Z,56.91
2023-04-16T09:45:55.137Z,53.48
2023-04-16T09:48:30.557Z,54.79
2023-04-16T09:50:59.464Z,54.38
2023-04-16T09:53:32.430Z,52.96
2023-04-16T09:56:05.391Z,54.01
2023-04-16T09:58:33.033Z,52.85
2023-04-16T10:01:06.210Z,53.15
2023-04-16T10:03:34.915Z,55.57
2023-04-16T10:06:20.183Z,57.89
2023-04-16T10:08:50.189Z,59.30
2023-04-16T10:11:18.816Z,59.32
2023-04-16T10:13:46.441Z,58.35
2023-04-16T10:16:13.661Z,58.37
2023-04-16T10:18:44.640Z,57.71
2023-04-16T10:21:12.767Z,58.56
2023-04-16T10:23:40.774Z,56.03
2023-04-16T10:26:07.949Z,56.54
2023-04-16T10:28:35.663Z,55.67
2023-04-16T10:31:09.177Z,55.48
2023-04-16T10:33:40.463Z,56.41
2023-04-16T10:36:16.417Z,54.89
2023-04-16T10:38:49.939Z,54.91
2023-04-16T10:41:17.252Z,53.05
2023-04-16T10:43:51.620Z,52.66
2023-04-16T10:46:27.138Z,52.58
2023-04-16T10:48:55.836Z,52.75
2023-04-16T10:51:28.054Z,51.96
2023-04-16T10:53:57.221Z,53.85
2023-04-16T10:56:26.710Z,54.49
2023-04-16T10:58:56.109Z,52.79
2023-04-16T11:01:36.007Z,53.57
2023-04-16T11:04:25.562Z,55.51
2023-04-16T11:07:18.791Z,54.08
2023-04-16T11:10:02.268Z,53.75
2023-04-16T11:12:44.681Z,53.93
2023-04-16T11:15:14.578Z,53.34
2023-04-16T11:17:51.676Z,51.85
2023-04-16T11:20:26.923Z,53.33
2023-04-16T11:22:56.260Z,54.30
2023-04-16T11:25:34.000Z,52.86
2023-04-16T11:28:02.577Z,54.50
2023-04-16T11:30:35.450Z,53.72
2023-04-16T11:33:11.624Z,55.49
2023-04-16T11:35:39.735Z,54.31
2023-04-16T11:38:07.325Z,56.00
2023-04-16T11:40:35.017Z,54.38
2023-04-16T11:43:14.830Z,55.17
2023-04-16T11:46:01.603Z,52.03
2023-04-16T11:48:53.378Z,47.72
2023-04-16T11:51:21.791Z,46.00
2023-04-16T11:53:53.542Z,44.02
2023-04-16T11:56:34.224Z,45.00
2023-04-16T11:59:09.792Z,44.58
2023-04-16T12:01:39.355Z,47.28
2023-04-16T12:04:07.399Z,49.41
2023-04-16T12:06:34.635Z,46.48
2023-04-16T12:09:25.251Z,45.53
2023-04-16T12:11:52.620Z,45.57
2023-04-16T12:14:20.071Z,45.43
2023-04-16T12:16:47.851Z,44.69
2023-04-16T12:19:15.805Z,45.41
2023-04-16T12:21:51.384Z,43.59
2023-04-16T12:24:24.404Z,43.71
2023-04-16T12:27:03.361Z,44.55
2023-04-16T12:29:31.260Z,46.69
2023-04-16T12:31:58.050Z,47.60
2023-04-16T12:34:36.499Z,46.10
2023-04-16T12:37:12.353Z,47.51
2023-04-16T12:39:39.214Z,49.30
2023-04-16T12:42:09.837Z,48.41
2023-04-16T12:44:36.762Z,50.12
2023-04-16T12:47:05.500Z,47.63
2023-04-16T12:49:32.441Z,46.97
2023-04-16T12:51:59.314Z,45.43
2023-04-16T12:54:28.982Z,47.00
2023-04-16T12:56:55.796Z,45.66
2023-04-16T12:59:23.033Z,46.96
2023-04-16T13:01:50.072Z,46.84
2023-04-16T13:04:19.075Z,47.66
2023-04-16T13:06:46.334Z,49.05
2023-04-16T13:09:13.327Z,49.45
2023-04-16T13:11:40.142Z,50.13
2023-04-16T13:14:07.062Z,49.96
2023-04-16T13:16:33.926Z,49.68
2023-04-16T13:19:00.842Z,49.08
2023-04-16T13:21:27.995Z,48.37
2023-04-16T13:23:56.221Z,47.90
2023-04-16T13:26:23.060Z,47.92
2023-04-16T13:28:49.894Z,47.90
2023-04-16T13:31:19.971Z,48.56
2023-04-16T13:33:47.232Z,49.71
2023-04-16T13:36:14.541Z,50.43
2023-04-16T13:38:42.174Z,50.20
2023-04-16T13:41:09.012Z,50.50
2023-04-16T13:43:37.745Z,51.74
2023-04-16T13:46:04.668Z,51.18
2023-04-16T13:48:32.627Z,51.14
2023-04-16T13:50:59.434Z,51.33
2023-04-16T13:53:26.572Z,51.34
2023-04-16T13:55:53.436Z,51.15
2023-04-16T13:58:20.425Z,51.06
2023-04-16T14:00:47.429Z,51.65
2023-04-16T14:03:14.365Z,51.31
2023-04-16T14:05:41.359Z,52.07
2023-04-16T14:08:08.277Z,52.11
2023-04-16T14:10:35.417Z,52.52
2023-04-16T14:13:03.282Z,52.04
2023-04-16T14:15:31.238Z,52.30
2023-04-16T14:17:58.365Z,52.23
2023-04-16T14:20:25.355Z,53.00
2023-04-16T14:22:52.308Z,53.12
2023-04-16T14:25:19.176Z,53.74
2023-04-16T14:27:46.050Z,53.97
2023-04-16T14:30:13.118Z,56.30
2023-04-16T14:32:40.890Z,56.59
2023-04-16T14:35:08.389Z,56.14
2023-04-16T14:37:36.525Z,55.56
2023-04-16T14:40:09.001Z,55.96
2023-04-16T14:42:38.044Z,56.30
2023-04-16T14:45:06.888Z,56.12
2023-04-16T14:47:35.314Z,57.44
2023-04-16T14:50:03.422Z,57.52
2023-04-16T14:52:33.510Z,59.22
2023-04-16T14:55:00.400Z,58.62
2023-04-16T14:57:27.256Z,58.67
2023-04-16T14:59:54.144Z,56.67
2023-04-16T15:02:21.825Z,57.71
2023-04-16T15:04:48.788Z,56.74
2023-04-16T15:07:15.754Z,55.63
2023-04-16T15:09:42.613Z,55.29
2023-04-16T15:12:09.510Z,55.78
2023-04-16T15:14:36.389Z,55.62
2023-04-16T15:17:03.616Z,55.60
2023-04-16T15:19:30.630Z,56.94
2023-04-16T15:21:57.492Z,58.58
2023-04-16T15:24:24.634Z,58.41
2023-04-16T15:26:51.475Z,58.31
2023-04-16T15:29:18.393Z,58.45
2023-04-16T15:31:45.434Z,58.49
2023-04-16T15:34:12.655Z,58.17
2023-04-16T15:36:39.724Z,57.58
2023-04-16T15:39:06.584Z,58.93
2023-04-16T15:41:36.920Z,59.69
2023-04-16T15:44:04.343Z,60.87
2023-04-16T15:46:31.442Z,61.32
2023-04-16T15:48:58.316Z,60.21
2023-04-16T15:51:25.123Z,58.92
2023-04-16T15:53:52.053Z,57.63
2023-04-16T15:56:20.485Z,57.22
2023-04-16T15:58:48.127Z,57.16
2023-04-16T16:01:16.372Z,56.25
2023-04-16T16:03:46.961Z,58.73
2023-04-16T16:06:14.739Z,60.11
2023-04-16T16:08:42.978Z,60.81
2023-04-16T16:11:09.965Z,60.84
2023-04-16T16:13:37.061Z,61.62
2023-04-16T16:16:04.467Z,59.72
2023-04-16T16:18:31.711Z,60.62
2023-04-16T16:20:59.093Z,59.87
2023-04-16T16:23:26.002Z,58.07
2023-04-16T16:25:52.869Z,59.66
2023-04-16T16:28:20.521Z,58.58
2023-04-16T16:30:47.543Z,58.53
2023-04-16T16:33:15.410Z,58.03
2023-04-16T16:35:42.236Z,58.24
2023-04-16T16:38:09.586Z,59.39
2023-04-16T16:40:37.020Z,58.65
2023-04-16T16:43:03.951Z,58.55
2023-04-16T16:45:30.970Z,58.35
2023-04-16T16:47:58.962Z,57.95
2023-04-16T16:50:26.134Z,57.74
2023-04-16T16:52:52.963Z,57.15
2023-04-16T16:55:20.933Z,56.83
2023-04-16T16:57:47.806Z,57.00
2023-04-16T17:00:16.180Z,57.04
2023-04-16T17:02:43.729Z,57.06
2023-04-16T17:05:10.961Z,57.56
2023-04-16T17:07:38.260Z,57.35
2023-04-16T17:10:11.142Z,57.23
2023-04-16T17:12:37.956Z,58.93
2023-04-16T17:15:05.166Z,59.31
2023-04-16T17:17:32.983Z,59.21
2023-04-16T17:20:01.007Z,59.47
2023-04-16T17:22:27.886Z,59.88
2023-04-16T17:24:54.737Z,59.74
2023-04-16T17:27:21.639Z,59.95
2023-04-16T17:29:48.471Z,60.17
2023-04-16T17:32:15.416Z,60.59
2023-04-16T17:34:42.314Z,60.31
2023-04-16T17:37:09.181Z,60.50
2023-04-16T17:39:36.006Z,60.83
2023-04-16T17:42:03.956Z,60.64
2023-04-16T17:44:30.857Z,61.29
2023-04-16T17:46:57.717Z,60.97
2023-04-16T17:49:25.571Z,61.53
2023-04-16T17:51:53.786Z,61.88
2023-04-16T17:54:20.636Z,61.77
2023-04-16T17:56:47.911Z,62.18
2023-04-16T17:59:14.738Z,62.37
2023-04-16T18:01:41.759Z,63.14
2023-04-16T18:04:09.428Z,63.27
2023-04-16T18:06:36.498Z,63.59
2023-04-16T18:09:05.696Z,63.57
2023-04-16T18:11:32.630Z,63.85
2023-04-16T18:13:59.469Z,64.64
2023-04-16T18:16:26.707Z,64.26
2023-04-16T18:18:53.653Z,64.28
2023-04-16T18:21:20.623Z,64.12
2023-04-16T18:23:47.462Z,64.13
2023-04-16T18:26:17.820Z,64.17
2023-04-16T18:28:47.167Z,64.89
2023-04-16T18:31:14.003Z,65.28
2023-04-16T18:33:55.279Z,65.23
2023-04-16T18:36:23.097Z,65.55
2023-04-16T18:39:00.316Z,65.62
2023-04-16T18:41:29.060Z,65.67
2023-04-16T18:43:55.949Z,66.07
2023-04-16T18:46:22.955Z,66.07
2023-04-16T18:48:49.855Z,66.09
2023-04-16T18:51:16.921Z,66.37
2023-04-16T18:53:45.530Z,67.16
2023-04-16T18:56:12.953Z,68.15
2023-04-16T18:58:39.967Z,68.08
2023-04-16T19:01:11.180Z,69.12
2023-04-16T19:03:38.785Z,68.60
2023-04-16T19:06:06.563Z,69.09
2023-04-16T19:08:33.417Z,68.72
2023-04-16T19:11:00.309Z,68.88
2023-04-16T19:13:27.180Z,68.73
2023-04-16T19:16:01.711Z,68.92
2023-04-16T19:18:28.826Z,68.86
2023-04-16T19:21:02.059Z,68.63
2023-04-16T19:23:29.207Z,68.50
2023-04-16T19:25:56.932Z,68.12
2023-04-16T19:28:24.953Z,68.15
2023-04-16T19:30:53.065Z,68.80
2023-04-16T19:33:20.449Z,69.33
2023-04-16T19:35:47.546Z,69.65
2023-04-16T19:38:14.423Z,69.51
2023-04-16T19:40:45.765Z,69.40
2023-04-16T19:43:12.962Z,69.45
2023-04-16T19:45:47.571Z,69.77
2023-04-16T19:48:14.868Z,69.47
2023-04-16T19:50:42.580Z,69.58
2023-04-16T19:53:10.203Z,69.68
2023-04-16T19:55:39.491Z,69.68
2023-04-16T19:58:06.618Z,68.70
2023-04-16T20:00:38.487Z,69.06
2023-04-16T20:03:06.215Z,69.20
2023-04-16T20:05:33.382Z,69.22
2023-04-16T20:08:00.382Z,68.83
2023-04-16T20:10:27.733Z,68.96
2023-04-16T20:12:54.561Z,69.39
2023-04-16T20:15:21.617Z,69.57
2023-04-16T20:17:48.601Z,70.00
2023-04-16T20:20:16.349Z,70.32
2023-04-16T20:22:43.782Z,69.95
2023-04-16T20:25:10.775Z,69.37
2023-04-16T20:27:37.869Z,69.60
2023-04-16T20:30:06.195Z,69.63
2023-04-16T20:32:33.345Z,69.86
2023-04-16T20:35:00.304Z,69.39
2023-04-16T20:37:29.006Z,69.42
2023-04-16T20:39:56.201Z,69.36
2023-04-16T20:42:26.230Z,69.20
2023-04-16T20:44:56.512Z,69.47
2023-04-16T20:47:23.832Z,69.53
2023-04-16T20:49:52.791Z,70.04
2023-04-16T20:52:20.128Z,69.84
2023-04-16T20:54:48.275Z,69.36
2023-04-16T20:57:15.091Z,68.98
2023-04-16T20:59:41.944Z,69.30
2023-04-16T21:02:08.939Z,69.62
2023-04-16T21:04:36.237Z,69.34
2023-04-16T21:07:04.140Z,69.46
2023-04-16T21:09:31.524Z,70.05
2023-04-16T21:11:58.476Z,69.92
2023-04-16T21:14:25.391Z,69.98
2023-04-16T21:16:52.234Z,70.19
2023-04-16T21:19:19.080Z,70.46
2023-04-16T21:21:46.120Z,70.30
2023-04-16T21:24:13.064Z,70.41
2023-04-16T21:26:39.875Z,70.23
2023-04-16T21:29:06.760Z,70.03
2023-04-16T21:31:33.715Z,70.37
2023-04-16T21:34:00.724Z,70.08
2023-04-16T21:36:29.129Z,69.83
2023-04-16T21:38:55.999Z,69.66
2023-04-16T21:41:22.799Z,69.99
2023-04-16T21:43:49.642Z,70.13
2023-04-16T21:46:16.532Z,70.79
2023-04-16T21:48:43.494Z,70.46
2023-04-16T21:51:10.366Z,70.22
2023-04-16T21:53:38.750Z,70.42
2023-04-16T21:56:06.627Z,69.64
2023-04-16T21:58:33.510Z,69.52
2023-04-16T22:01:00.321Z,69.76
2023-04-16T22:03:27.769Z,69.93
2023-04-16T22:06:02.755Z,70.04
2023-04-16T22:08:30.325Z,70.22
2023-04-16T22:11:06.405Z,70.28
2023-04-16T22:13:33.281Z,70.07
2023-04-16T22:16:01.325Z,70.20
2023-04-16T22:18:29.038Z,70.38
2023-04-16T22:20:56.219Z,70.53
2023-04-16T22:23:26.176Z,69.98
2023-04-16T22:25:55.399Z,70.44
2023-04-16T22:28:22.790Z,70.50
2023-04-16T22:30:49.791Z,70.45
2023-04-16T22:33:16.740Z,70.44
2023-04-16T22:35:43.726Z,70.79
2023-04-16T22:38:10.722Z,71.02
2023-04-16T22:40:37.622Z,70.80
2023-04-16T22:43:05.027Z,71.14
2023-04-16T22:45:32.026Z,70.60
2023-04-16T22:47:59.025Z,71.11
2023-04-16T22:50:25.999Z,70.99
2023-04-16T22:52:52.859Z,71.06
2023-04-16T22:55:19.816Z,71.15
2023-04-16T22:57:47.493Z,70.92
2023-04-16T23:00:18.063Z,70.73
2023-04-16T23:02:45.655Z,70.80
2023-04-16T23:05:12.655Z,70.97
2023-04-16T23:07:39.712Z,70.88
2023-04-16T23:10:08.545Z,70.56
2023-04-16T23:12:39.168Z,70.83
2023-04-16T23:15:07.028Z,70.27
2023-04-16T23:17:35.015Z,70.24
2023-04-16T23:20:02.245Z,70.22
2023-04-16T23:22:29.151Z,70.92
2023-04-16T23:24:56.028Z,71.18
2023-04-16T23:27:22.947Z,70.95
2023-04-16T23:29:49.821Z,70.78
2023-04-16T23:32:16.656Z,70.38
2023-04-16T23:34:43.499Z,70.58
2023-04-16T23:37:10.378Z,70.31
2023-04-16T23:39:37.567Z,70.34
2023-04-16T23:42:04.405Z,70.27
2023-04-16T23:44:31.316Z,70.13
2023-04-16T23:46:58.306Z,69.72
2023-04-16T23:49:25.428Z,70.41
2023-04-16T23:51:52.395Z,70.86
2023-04-16T23:54:19.274Z,70.66
2023-04-16T23:56:46.104Z,70.89
2023-04-16T23:59:13.206Z,70.21
